sensor_id;sensor_type;location;lat;lon;timestamp;pressure;altitude;pressure_sealevel;temperature;humidity
80682;BME280;70045;40.200;44.582;2024-02-15T00:00:52;86001.41;;;9.18;58.13
80682;BME280;70045;40.200;44.582;2024-02-15T00:03:21;86003.91;;;9.21;57.34
80682;BME280;70045;40.200;44.582;2024-02-15T00:05:46;86001.00;;;9.19;56.97
80682;BME280;70045;40.200;44.582;2024-02-15T00:08:12;86003.25;;;9.17;57.64
80682;BME280;70045;40.200;44.582;2024-02-15T00:10:37;86002.16;;;9.18;57.55
80682;BME280;70045;40.200;44.582;2024-02-15T00:13:03;86000.34;;;9.15;57.31
80682;BME280;70045;40.200;44.582;2024-02-15T00:15:32;86004.97;;;9.24;56.81
80682;BME280;70045;40.200;44.582;2024-02-15T00:17:57;85994.81;;;9.33;56.44
80682;BME280;70045;40.200;44.582;2024-02-15T00:20:23;85997.09;;;9.48;56.89
80682;BME280;70045;40.200;44.582;2024-02-15T00:22:48;86006.72;;;9.47;56.26
80682;BME280;70045;40.200;44.582;2024-02-15T00:25:14;85994.78;;;9.53;56.42
80682;BME280;70045;40.200;44.582;2024-02-15T00:27:42;85997.44;;;9.66;55.97
80682;BME280;70045;40.200;44.582;2024-02-15T00:30:08;85996.97;;;9.71;55.96
80682;BME280;70045;40.200;44.582;2024-02-15T00:32:34;85976.81;;;9.63;54.89
80682;BME280;70045;40.200;44.582;2024-02-15T00:34:59;85991.88;;;9.84;55.07
80682;BME280;70045;40.200;44.582;2024-02-15T00:37:25;85994.63;;;9.93;55.24
80682;BME280;70045;40.200;44.582;2024-02-15T00:39:53;85987.66;;;10.07;54.36
80682;BME280;70045;40.200;44.582;2024-02-15T00:42:18;85991.22;;;10.13;54.70
80682;BME280;70045;40.200;44.582;2024-02-15T00:44:44;85980.84;;;10.13;54.65
80682;BME280;70045;40.200;44.582;2024-02-15T00:47:09;85980.06;;;10.16;55.09
80682;BME280;70045;40.200;44.582;2024-02-15T00:49:35;85978.19;;;10.16;55.03
80682;BME280;70045;40.200;44.582;2024-02-15T00:52:05;85974.13;;;10.15;54.61
80682;BME280;70045;40.200;44.582;2024-02-15T00:54:31;85979.25;;;10.19;54.39
80682;BME280;70045;40.200;44.582;2024-02-15T00:56:56;85980.50;;;10.27;54.71
80682;BME280;70045;40.200;44.582;2024-02-15T00:59:21;85979.88;;;10.23;55.02
80682;BME280;70045;40.200;44.582;2024-02-15T01:01:47;85978.03;;;10.07;55.41
80682;BME280;70045;40.200;44.582;2024-02-15T01:04:16;85979.66;;;10.01;56.06
80682;BME280;70045;40.200;44.582;2024-02-15T01:06:41;85983.94;;;10.08;55.89
80682;BME280;70045;40.200;44.582;2024-02-15T01:09:06;85991.22;;;10.13;55.34
80682;BME280;70045;40.200;44.582;2024-02-15T01:11:32;85994.94;;;10.28;55.10
80682;BME280;70045;40.200;44.582;2024-02-15T01:13:58;86000.78;;;10.32;54.86
80682;BME280;70045;40.200;44.582;2024-02-15T01:16:26;85992.44;;;10.25;55.20
80682;BME280;70045;40.200;44.582;2024-02-15T01:18:51;85994.53;;;10.13;55.95
80682;BME280;70045;40.200;44.582;2024-02-15T01:21:17;86000.88;;;10.12;55.53
80682;BME280;70045;40.200;44.582;2024-02-15T01:23:42;85995.69;;;10.12;56.66
80682;BME280;70045;40.200;44.582;2024-02-15T01:26:08;85976.34;;;10.01;55.56
80682;BME280;70045;40.200;44.582;2024-02-15T01:28:37;86000.13;;;10.28;54.74
80682;BME280;70045;40.200;44.582;2024-02-15T01:31:02;86000.69;;;10.36;55.09
80682;BME280;70045;40.200;44.582;2024-02-15T01:33:28;86007.00;;;10.18;55.40
80682;BME280;70045;40.200;44.582;2024-02-15T01:35:53;86003.13;;;10.10;55.34
80682;BME280;70045;40.200;44.582;2024-02-15T01:38:19;86002.06;;;10.08;55.64
80682;BME280;70045;40.200;44.582;2024-02-15T01:40:47;86008.06;;;10.21;55.22
80682;BME280;70045;40.200;44.582;2024-02-15T01:43:12;86012.34;;;10.28;54.76
80682;BME280;70045;40.200;44.582;2024-02-15T01:45:38;86018.50;;;10.34;55.07
80682;BME280;70045;40.200;44.582;2024-02-15T01:48:04;86020.19;;;10.41;54.43
80682;BME280;70045;40.200;44.582;2024-02-15T01:50:31;86027.00;;;10.34;54.52
80682;BME280;70045;40.200;44.582;2024-02-15T01:53:04;86035.13;;;10.36;54.42
80682;BME280;70045;40.200;44.582;2024-02-15T01:55:31;86039.38;;;10.43;54.47
80682;BME280;70045;40.200;44.582;2024-02-15T01:57:58;86038.81;;;10.52;53.79
80682;BME280;70045;40.200;44.582;2024-02-15T02:00:23;86043.50;;;10.57;54.46
80682;BME280;70045;40.200;44.582;2024-02-15T02:02:49;86035.91;;;10.50;54.60
80682;BME280;70045;40.200;44.582;2024-02-15T02:05:19;86039.38;;;10.43;55.57
80682;BME280;70045;40.200;44.582;2024-02-15T02:07:45;86041.56;;;10.45;55.25
80682;BME280;70045;40.200;44.582;2024-02-15T02:10:10;86046.53;;;10.39;55.78
80682;BME280;70045;40.200;44.582;2024-02-15T02:12:37;86042.53;;;10.34;55.83
80682;BME280;70045;40.200;44.582;2024-02-15T02:15:03;86041.72;;;10.21;56.95
80682;BME280;70045;40.200;44.582;2024-02-15T02:17:31;86035.25;;;10.13;57.64
80682;BME280;70045;40.200;44.582;2024-02-15T02:19:56;86037.38;;;10.02;57.57
80682;BME280;70045;40.200;44.582;2024-02-15T02:22:22;86040.50;;;9.93;58.56
80682;BME280;70045;40.200;44.582;2024-02-15T02:25:06;86042.84;;;9.87;59.28
80682;BME280;70045;40.200;44.582;2024-02-15T02:27:35;86036.88;;;9.74;59.46
80682;BME280;70045;40.200;44.582;2024-02-15T02:30:01;86046.06;;;9.75;60.61
80682;BME280;70045;40.200;44.582;2024-02-15T02:32:27;86052.41;;;9.74;60.55
80682;BME280;70045;40.200;44.582;2024-02-15T02:34:53;86045.44;;;9.71;61.72
80682;BME280;70045;40.200;44.582;2024-02-15T02:37:19;86050.28;;;9.69;62.28
80682;BME280;70045;40.200;44.582;2024-02-15T02:39:47;86049.59;;;9.65;61.98
80682;BME280;70045;40.200;44.582;2024-02-15T02:42:13;86057.06;;;9.63;61.97
80682;BME280;70045;40.200;44.582;2024-02-15T02:44:38;86056.41;;;9.58;62.42
80682;BME280;70045;40.200;44.582;2024-02-15T02:47:04;86056.41;;;9.58;62.45
80682;BME280;70045;40.200;44.582;2024-02-15T02:49:29;86056.88;;;9.53;63.46
80682;BME280;70045;40.200;44.582;2024-02-15T02:51:57;86062.06;;;9.53;62.96
80682;BME280;70045;40.200;44.582;2024-02-15T02:54:23;86059.66;;;9.42;63.29
80682;BME280;70045;40.200;44.582;2024-02-15T02:56:48;86057.03;;;9.46;63.47
80682;BME280;70045;40.200;44.582;2024-02-15T02:59:13;86061.19;;;9.40;63.21
80682;BME280;70045;40.200;44.582;2024-02-15T03:01:39;86082.22;;;9.42;63.96
80682;BME280;70045;40.200;44.582;2024-02-15T03:04:08;86064.66;;;9.33;63.88
80682;BME280;70045;40.200;44.582;2024-02-15T03:06:34;86078.75;;;9.32;63.80
80682;BME280;70045;40.200;44.582;2024-02-15T03:09:01;86074.66;;;9.11;64.85
80682;BME280;70045;40.200;44.582;2024-02-15T03:11:26;86081.91;;;9.00;64.55
80682;BME280;70045;40.200;44.582;2024-02-15T03:13:51;86079.00;;;8.98;64.95
80682;BME280;70045;40.200;44.582;2024-02-15T03:16:23;86084.56;;;8.96;64.59
80682;BME280;70045;40.200;44.582;2024-02-15T03:18:49;86080.56;;;8.92;64.04
80682;BME280;70045;40.200;44.582;2024-02-15T03:21:14;86081.72;;;8.91;63.63
80682;BME280;70045;40.200;44.582;2024-02-15T03:23:39;86076.66;;;8.83;64.02
80682;BME280;70045;40.200;44.582;2024-02-15T03:26:07;86050.53;;;8.58;64.81
80682;BME280;70045;40.200;44.582;2024-02-15T03:28:36;86076.63;;;8.63;65.66
80682;BME280;70045;40.200;44.582;2024-02-15T03:31:01;86073.41;;;8.59;65.70
80682;BME280;70045;40.200;44.582;2024-02-15T03:33:27;86069.84;;;8.50;65.61
80682;BME280;70045;40.200;44.582;2024-02-15T03:35:52;86059.59;;;8.46;66.18
80682;BME280;70045;40.200;44.582;2024-02-15T03:38:17;86058.41;;;8.51;66.36
80682;BME280;70045;40.200;44.582;2024-02-15T03:40:45;86059.28;;;8.64;66.04
80682;BME280;70045;40.200;44.582;2024-02-15T03:43:11;86056.50;;;8.75;64.91
80682;BME280;70045;40.200;44.582;2024-02-15T03:45:36;86043.50;;;8.78;64.74
80682;BME280;70045;40.200;44.582;2024-02-15T03:48:02;86037.69;;;8.74;63.82
80682;BME280;70045;40.200;44.582;2024-02-15T03:50:27;86037.41;;;8.69;63.47
80682;BME280;70045;40.200;44.582;2024-02-15T03:52:56;86034.47;;;8.46;65.05
80682;BME280;70045;40.200;44.582;2024-02-15T03:55:23;86038.44;;;8.27;65.58
80682;BME280;70045;40.200;44.582;2024-02-15T03:57:48;86032.56;;;8.03;67.41
80682;BME280;70045;40.200;44.582;2024-02-15T04:00:14;86033.16;;;7.87;67.96
80682;BME280;70045;40.200;44.582;2024-02-15T04:02:40;86047.00;;;7.73;69.25
80682;BME280;70045;40.200;44.582;2024-02-15T04:05:09;86043.09;;;7.62;69.28
80682;BME280;70045;40.200;44.582;2024-02-15T04:07:35;86046.78;;;7.64;69.09
80682;BME280;70045;40.200;44.582;2024-02-15T04:10:00;86052.66;;;7.65;68.71
80682;BME280;70045;40.200;44.582;2024-02-15T04:12:25;86049.69;;;7.66;68.98
80682;BME280;70045;40.200;44.582;2024-02-15T04:14:51;86046.66;;;7.71;67.71
80682;BME280;70045;40.200;44.582;2024-02-15T04:17:20;86056.13;;;7.82;67.35
80682;BME280;70045;40.200;44.582;2024-02-15T04:19:45;86068.91;;;7.89;66.45
80682;BME280;70045;40.200;44.582;2024-02-15T04:22:11;86076.38;;;8.07;67.08
80682;BME280;70045;40.200;44.582;2024-02-15T04:24:37;86082.19;;;8.15;67.38
80682;BME280;70045;40.200;44.582;2024-02-15T04:27:02;86100.59;;;8.17;66.96
80682;BME280;70045;40.200;44.582;2024-02-15T04:29:31;86098.53;;;8.32;66.94
80682;BME280;70045;40.200;44.582;2024-02-15T04:31:57;86114.25;;;8.41;66.42
80682;BME280;70045;40.200;44.582;2024-02-15T04:34:22;86134.78;;;8.52;65.82
80682;BME280;70045;40.200;44.582;2024-02-15T04:36:48;86125.47;;;8.58;65.13
80682;BME280;70045;40.200;44.582;2024-02-15T04:39:13;86139.94;;;8.75;65.62
80682;BME280;70045;40.200;44.582;2024-02-15T04:41:41;86131.38;;;8.78;65.44
80682;BME280;70045;40.200;44.582;2024-02-15T04:44:07;86131.28;;;8.85;65.42
80682;BME280;70045;40.200;44.582;2024-02-15T04:46:32;86138.59;;;8.91;65.71
80682;BME280;70045;40.200;44.582;2024-02-15T04:48:57;86144.41;;;8.95;65.73
80682;BME280;70045;40.200;44.582;2024-02-15T04:51:23;86143.69;;;8.94;64.87
80682;BME280;70045;40.200;44.582;2024-02-15T04:53:52;86147.28;;;9.00;65.95
80682;BME280;70045;40.200;44.582;2024-02-15T04:56:17;86154.19;;;9.07;64.19
80682;BME280;70045;40.200;44.582;2024-02-15T04:58:43;86141.25;;;9.07;64.32
80682;BME280;70045;40.200;44.582;2024-02-15T05:01:08;86141.00;;;9.21;63.79
80682;BME280;70045;40.200;44.582;2024-02-15T05:03:34;86137.22;;;9.26;63.12
80682;BME280;70045;40.200;44.582;2024-02-15T05:06:03;86141.22;;;9.31;63.24
80682;BME280;70045;40.200;44.582;2024-02-15T05:08:28;86142.78;;;9.24;63.83
80682;BME280;70045;40.200;44.582;2024-02-15T05:10:54;86130.19;;;9.27;63.67
80682;BME280;70045;40.200;44.582;2024-02-15T05:13:19;86126.81;;;9.30;63.42
80682;BME280;70045;40.200;44.582;2024-02-15T05:15:44;86118.84;;;9.20;62.50
80682;BME280;70045;40.200;44.582;2024-02-15T05:18:12;86113.47;;;9.11;62.99
80682;BME280;70045;40.200;44.582;2024-02-15T05:20:38;86104.41;;;9.03;62.60
80682;BME280;70045;40.200;44.582;2024-02-15T05:23:03;86109.69;;;8.96;62.39
80682;BME280;70045;40.200;44.582;2024-02-15T05:25:29;86062.75;;;8.77;63.37
80682;BME280;70045;40.200;44.582;2024-02-15T05:27:57;86071.44;;;8.87;62.75
80682;BME280;70045;40.200;44.582;2024-02-15T05:30:34;86079.19;;;8.87;63.61
80682;BME280;70045;40.200;44.582;2024-02-15T05:36:31;86068.44;;;8.89;64.82
80682;BME280;70045;40.200;44.582;2024-02-15T05:44:36;86117.22;;;8.86;63.11
80682;BME280;70045;40.200;44.582;2024-02-15T05:47:10;86097.44;;;8.76;63.14
80682;BME280;70045;40.200;44.582;2024-02-15T05:49:38;86115.41;;;9.07;62.32
80682;BME280;70045;40.200;44.582;2024-02-15T05:52:10;86112.53;;;9.21;61.81
80682;BME280;70045;40.200;44.582;2024-02-15T05:54:37;86101.59;;;9.34;61.58
80682;BME280;70045;40.200;44.582;2024-02-15T05:57:06;86099.88;;;9.07;61.60
80682;BME280;70045;40.200;44.582;2024-02-15T05:59:32;86109.97;;;9.21;61.38
80682;BME280;70045;40.200;44.582;2024-02-15T06:02:07;86123.91;;;9.28;61.84
80682;BME280;70045;40.200;44.582;2024-02-15T06:04:43;86118.66;;;9.31;60.66
80682;BME280;70045;40.200;44.582;2024-02-15T06:07:15;86115.41;;;9.47;60.61
80682;BME280;70045;40.200;44.582;2024-02-15T06:09:41;86137.94;;;9.67;59.50
80682;BME280;70045;40.200;44.582;2024-02-15T06:12:06;86150.34;;;9.75;59.88
80682;BME280;70045;40.200;44.582;2024-02-15T06:14:35;86135.56;;;9.76;59.82
80682;BME280;70045;40.200;44.582;2024-02-15T06:17:07;86137.53;;;9.88;59.35
80682;BME280;70045;40.200;44.582;2024-02-15T06:19:56;86144.84;;;10.10;59.56
80682;BME280;70045;40.200;44.582;2024-02-15T06:22:31;86107.09;;;9.92;58.21
80682;BME280;70045;40.200;44.582;2024-02-15T06:25:00;86158.47;;;10.50;58.06
80682;BME280;70045;40.200;44.582;2024-02-15T06:27:37;86085.44;;;10.03;57.03
80682;BME280;70045;40.200;44.582;2024-02-15T06:30:19;86149.44;;;10.55;57.69
80682;BME280;70045;40.200;44.582;2024-02-15T06:32:49;86177.47;;;10.60;57.57
80682;BME280;70045;40.200;44.582;2024-02-15T06:41:16;86198.56;;;10.95;57.19
80682;BME280;70045;40.200;44.582;2024-02-15T06:43:42;86201.16;;;10.95;57.16
80682;BME280;70045;40.200;44.582;2024-02-15T06:46:10;86209.31;;;10.93;57.31
80682;BME280;70045;40.200;44.582;2024-02-15T06:48:44;86199.38;;;10.92;57.53
80682;BME280;70045;40.200;44.582;2024-02-15T06:51:12;86207.22;;;11.05;57.74
80682;BME280;70045;40.200;44.582;2024-02-15T06:53:39;86199.75;;;11.23;57.54
80682;BME280;70045;40.200;44.582;2024-02-15T06:56:04;86197.84;;;11.40;57.64
80682;BME280;70045;40.200;44.582;2024-02-15T06:58:30;86194.03;;;11.45;57.16
80682;BME280;70045;40.200;44.582;2024-02-15T07:00:59;86175.72;;;11.36;57.10
80682;BME280;70045;40.200;44.582;2024-02-15T07:03:24;86189.38;;;11.53;56.65
80682;BME280;70045;40.200;44.582;2024-02-15T07:05:50;86200.53;;;11.53;56.52
80682;BME280;70045;40.200;44.582;2024-02-15T07:08:16;86195.41;;;11.79;55.99
80682;BME280;70045;40.200;44.582;2024-02-15T07:10:41;86191.66;;;12.09;55.50
80682;BME280;70045;40.200;44.582;2024-02-15T07:13:10;86203.25;;;12.34;54.69
80682;BME280;70045;40.200;44.582;2024-02-15T07:15:36;86200.03;;;12.30;53.32
80682;BME280;70045;40.200;44.582;2024-02-15T07:18:01;86188.16;;;12.29;54.36
80682;BME280;70045;40.200;44.582;2024-02-15T07:20:27;86192.03;;;12.37;53.69
80682;BME280;70045;40.200;44.582;2024-02-15T07:22:52;86175.16;;;12.29;53.23
80682;BME280;70045;40.200;44.582;2024-02-15T07:25:21;86165.72;;;12.35;53.01
80682;BME280;70045;40.200;44.582;2024-02-15T07:27:46;86176.84;;;12.61;53.35
80682;BME280;70045;40.200;44.582;2024-02-15T07:30:12;86191.50;;;12.80;52.58
80682;BME280;70045;40.200;44.582;2024-02-15T07:32:38;86180.28;;;12.71;53.12
80682;BME280;70045;40.200;44.582;2024-02-15T07:35:03;86184.13;;;12.79;51.90
80682;BME280;70045;40.200;44.582;2024-02-15T07:37:31;86180.06;;;12.78;51.46
80682;BME280;70045;40.200;44.582;2024-02-15T07:39:57;86190.25;;;12.85;52.99
80682;BME280;70045;40.200;44.582;2024-02-15T07:42:22;86188.28;;;12.63;52.81
80682;BME280;70045;40.200;44.582;2024-02-15T07:44:48;86189.00;;;12.51;53.01
80682;BME280;70045;40.200;44.582;2024-02-15T07:47:13;86186.31;;;12.42;54.17
80682;BME280;70045;40.200;44.582;2024-02-15T07:49:42;86189.22;;;12.44;53.20
80682;BME280;70045;40.200;44.582;2024-02-15T07:52:08;86180.69;;;12.43;52.81
80682;BME280;70045;40.200;44.582;2024-02-15T07:54:33;86181.31;;;12.35;52.88
80682;BME280;70045;40.200;44.582;2024-02-15T07:56:59;86187.44;;;12.41;53.19
80682;BME280;70045;40.200;44.582;2024-02-15T07:59:24;86181.81;;;12.42;52.74
80682;BME280;70045;40.200;44.582;2024-02-15T08:01:53;86174.78;;;12.56;52.74
80682;BME280;70045;40.200;44.582;2024-02-15T08:04:19;86168.00;;;12.58;52.39
80682;BME280;70045;40.200;44.582;2024-02-15T08:06:45;86174.44;;;12.67;52.33
80682;BME280;70045;40.200;44.582;2024-02-15T08:09:10;86173.19;;;12.84;52.09
80682;BME280;70045;40.200;44.582;2024-02-15T08:11:35;86168.69;;;13.10;52.17
80682;BME280;70045;40.200;44.582;2024-02-15T08:14:04;86171.97;;;13.36;51.29
80682;BME280;70045;40.200;44.582;2024-02-15T08:16:29;86152.44;;;13.54;51.23
80682;BME280;70045;40.200;44.582;2024-02-15T08:18:55;86154.50;;;13.59;50.52
80682;BME280;70045;40.200;44.582;2024-02-15T08:21:33;86148.59;;;13.81;48.90
80682;BME280;70045;40.200;44.582;2024-02-15T08:24:03;86148.47;;;14.06;49.70
80682;BME280;70045;40.200;44.582;2024-02-15T08:26:33;86142.34;;;14.31;48.36
80682;BME280;70045;40.200;44.582;2024-02-15T08:28:58;86140.63;;;14.60;48.45
80682;BME280;70045;40.200;44.582;2024-02-15T08:31:24;86140.06;;;14.65;48.78
80682;BME280;70045;40.200;44.582;2024-02-15T08:33:49;86125.59;;;14.73;47.72
80682;BME280;70045;40.200;44.582;2024-02-15T08:36:15;86119.66;;;14.82;47.89
80682;BME280;70045;40.200;44.582;2024-02-15T08:38:45;86119.53;;;14.85;46.35
80682;BME280;70045;40.200;44.582;2024-02-15T08:41:12;86112.41;;;14.77;47.38
80682;BME280;70045;40.200;44.582;2024-02-15T08:43:37;86119.63;;;14.63;47.73
80682;BME280;70045;40.200;44.582;2024-02-15T08:46:03;86109.91;;;14.64;47.52
80682;BME280;70045;40.200;44.582;2024-02-15T08:48:28;86109.47;;;15.24;46.35
80682;BME280;70045;40.200;44.582;2024-02-15T08:50:56;86103.22;;;17.63;44.07
80682;BME280;70045;40.200;44.582;2024-02-15T08:53:22;86090.34;;;18.93;40.31
80682;BME280;70045;40.200;44.582;2024-02-15T08:55:48;86068.84;;;19.51;35.11
80682;BME280;70045;40.200;44.582;2024-02-15T08:58:13;86091.94;;;18.55;41.75
80682;BME280;70045;40.200;44.582;2024-02-15T09:00:39;86088.63;;;17.71;41.58
80682;BME280;70045;40.200;44.582;2024-02-15T09:03:07;86079.88;;;18.63;37.59
80682;BME280;70045;40.200;44.582;2024-02-15T09:05:33;86073.59;;;19.47;39.34
80682;BME280;70045;40.200;44.582;2024-02-15T09:07:58;86084.22;;;18.67;38.60
80682;BME280;70045;40.200;44.582;2024-02-15T09:10:23;86074.03;;;18.39;41.17
80682;BME280;70045;40.200;44.582;2024-02-15T09:12:49;86091.19;;;18.70;40.21
80682;BME280;70045;40.200;44.582;2024-02-15T09:15:18;86083.25;;;18.49;39.63
80682;BME280;70045;40.200;44.582;2024-02-15T09:17:44;86089.06;;;18.23;40.36
80682;BME280;70045;40.200;44.582;2024-02-15T09:20:11;86086.69;;;17.96;39.91
80682;BME280;70045;40.200;44.582;2024-02-15T09:22:37;86073.59;;;19.26;40.32
80682;BME280;70045;40.200;44.582;2024-02-15T09:25:03;86075.44;;;19.41;38.87
80682;BME280;70045;40.200;44.582;2024-02-15T09:27:34;86078.38;;;18.42;36.87
80682;BME280;70045;40.200;44.582;2024-02-15T09:29:59;86081.91;;;18.39;40.12
80682;BME280;70045;40.200;44.582;2024-02-15T09:32:25;86076.84;;;19.00;37.33
80682;BME280;70045;40.200;44.582;2024-02-15T09:34:50;86083.22;;;18.79;38.66
80682;BME280;70045;40.200;44.582;2024-02-15T09:37:15;86078.72;;;19.35;35.86
80682;BME280;70045;40.200;44.582;2024-02-15T09:39:47;86079.91;;;19.34;35.84
80682;BME280;70045;40.200;44.582;2024-02-15T09:42:12;86090.31;;;20.37;37.72
80682;BME280;70045;40.200;44.582;2024-02-15T09:44:38;86062.88;;;21.56;35.19
80682;BME280;70045;40.200;44.582;2024-02-15T09:47:04;86061.69;;;22.34;31.55
80682;BME280;70045;40.200;44.582;2024-02-15T09:49:35;86083.75;;;22.31;32.46
80682;BME280;70045;40.200;44.582;2024-02-15T09:52:08;86088.19;;;21.86;33.00
80682;BME280;70045;40.200;44.582;2024-02-15T09:54:35;86076.16;;;20.61;35.46
80682;BME280;70045;40.200;44.582;2024-02-15T09:57:01;86070.91;;;19.41;37.50
80682;BME280;70045;40.200;44.582;2024-02-15T09:59:27;86059.84;;;19.57;36.51
80682;BME280;70045;40.200;44.582;2024-02-15T10:01:56;86054.31;;;20.23;36.44
80682;BME280;70045;40.200;44.582;2024-02-15T10:04:27;86050.38;;;20.12;36.09
80682;BME280;70045;40.200;44.582;2024-02-15T10:06:52;86063.66;;;19.15;35.44
80682;BME280;70045;40.200;44.582;2024-02-15T10:09:25;86069.16;;;18.17;37.11
80682;BME280;70045;40.200;44.582;2024-02-15T10:11:57;86070.16;;;17.65;38.77
80682;BME280;70045;40.200;44.582;2024-02-15T10:14:24;86074.44;;;17.39;39.46
80682;BME280;70045;40.200;44.582;2024-02-15T10:16:54;86077.72;;;17.48;38.94
80682;BME280;70045;40.200;44.582;2024-02-15T10:19:20;86079.63;;;18.61;37.90
80682;BME280;70045;40.200;44.582;2024-02-15T10:21:46;86068.34;;;19.88;35.64
80682;BME280;70045;40.200;44.582;2024-02-15T10:24:12;86067.16;;;19.27;35.15
80682;BME280;70045;40.200;44.582;2024-02-15T10:26:37;86069.69;;;18.36;37.34
80682;BME280;70045;40.200;44.582;2024-02-15T10:29:10;86077.69;;;17.73;37.31
80682;BME280;70045;40.200;44.582;2024-02-15T10:31:40;86085.44;;;17.28;37.95
80682;BME280;70045;40.200;44.582;2024-02-15T10:34:06;86080.47;;;16.72;39.31
80682;BME280;70045;40.200;44.582;2024-02-15T10:36:31;86086.88;;;16.29;39.68
80682;BME280;70045;40.200;44.582;2024-02-15T10:39:16;86088.28;;;15.87;40.62
80682;BME280;70045;40.200;44.582;2024-02-15T10:41:52;86086.84;;;15.77;41.66
80682;BME280;70045;40.200;44.582;2024-02-15T10:44:19;86079.03;;;16.19;40.99
80682;BME280;70045;40.200;44.582;2024-02-15T10:46:46;86082.66;;;16.31;40.60
80682;BME280;70045;40.200;44.582;2024-02-15T10:49:12;86087.59;;;16.29;40.64
80682;BME280;70045;40.200;44.582;2024-02-15T10:51:44;86082.75;;;15.94;40.92
80682;BME280;70045;40.200;44.582;2024-02-15T10:54:12;86074.63;;;15.55;41.41
80682;BME280;70045;40.200;44.582;2024-02-15T10:56:58;86061.84;;;15.20;41.80
80682;BME280;70045;40.200;44.582;2024-02-15T10:59:32;86066.22;;;15.33;40.81
80682;BME280;70045;40.200;44.582;2024-02-15T11:02:30;86072.16;;;15.24;40.80
80682;BME280;70045;40.200;44.582;2024-02-15T11:04:54;86062.44;;;14.97;41.51
80682;BME280;70045;40.200;44.582;2024-02-15T11:07:20;86054.84;;;14.80;42.30
80682;BME280;70045;40.200;44.582;2024-02-15T11:09:47;86052.09;;;14.84;42.13
80682;BME280;70045;40.200;44.582;2024-02-15T11:12:15;86059.50;;;14.76;42.30
80682;BME280;70045;40.200;44.582;2024-02-15T11:14:44;86049.63;;;14.71;42.92
80682;BME280;70045;40.200;44.582;2024-02-15T11:17:10;86062.97;;;14.64;42.45
80682;BME280;70045;40.200;44.582;2024-02-15T11:22:04;86055.50;;;14.53;44.23
80682;BME280;70045;40.200;44.582;2024-02-15T11:24:36;86063.72;;;14.42;44.20
80682;BME280;70045;40.200;44.582;2024-02-15T11:27:06;86066.34;;;14.42;44.29
80682;BME280;70045;40.200;44.582;2024-02-15T11:29:56;86052.72;;;14.38;44.81
80682;BME280;70045;40.200;44.582;2024-02-15T11:32:44;86067.22;;;14.48;44.72
80682;BME280;70045;40.200;44.582;2024-02-15T11:35:14;86071.25;;;14.40;44.63
80682;BME280;70045;40.200;44.582;2024-02-15T11:37:51;86058.78;;;14.35;44.47
80682;BME280;70045;40.200;44.582;2024-02-15T11:40:26;86063.41;;;14.31;44.86
80682;BME280;70045;40.200;44.582;2024-02-15T11:42:59;86068.63;;;14.31;45.00
80682;BME280;70045;40.200;44.582;2024-02-15T11:45:29;86061.81;;;14.34;44.31
80682;BME280;70045;40.200;44.582;2024-02-15T11:47:54;86046.91;;;14.34;44.65
80682;BME280;70045;40.200;44.582;2024-02-15T11:50:21;86059.84;;;14.47;44.33
80682;BME280;70045;40.200;44.582;2024-02-15T11:52:48;86052.16;;;14.43;44.53
80682;BME280;70045;40.200;44.582;2024-02-15T11:55:17;86065.78;;;14.47;43.93
80682;BME280;70045;40.200;44.582;2024-02-15T11:58:00;86066.56;;;14.66;44.29
80682;BME280;70045;40.200;44.582;2024-02-15T12:00:28;86062.81;;;14.67;44.28
80682;BME280;70045;40.200;44.582;2024-02-15T12:02:53;86067.91;;;14.71;44.14
80682;BME280;70045;40.200;44.582;2024-02-15T12:05:19;86065.19;;;14.43;44.08
80682;BME280;70045;40.200;44.582;2024-02-15T12:07:45;86055.09;;;14.14;44.11
80682;BME280;70045;40.200;44.582;2024-02-15T12:10:19;86075.41;;;14.28;44.28
80682;BME280;70045;40.200;44.582;2024-02-15T12:12:53;86081.06;;;14.27;44.88
80682;BME280;70045;40.200;44.582;2024-02-15T12:15:19;86074.97;;;14.30;45.04
80682;BME280;70045;40.200;44.582;2024-02-15T12:17:45;86072.41;;;14.71;44.57
80682;BME280;70045;40.200;44.582;2024-02-15T12:20:10;86063.91;;;15.16;43.94
80682;BME280;70045;40.200;44.582;2024-02-15T12:22:47;86062.31;;;15.37;43.12
80682;BME280;70045;40.200;44.582;2024-02-15T12:25:25;86066.50;;;15.44;42.26
80682;BME280;70045;40.200;44.582;2024-02-15T12:27:56;86056.06;;;15.25;41.69
80682;BME280;70045;40.200;44.582;2024-02-15T12:30:22;86059.09;;;15.24;42.47
80682;BME280;70045;40.200;44.582;2024-02-15T12:32:52;86043.00;;;15.25;41.87
80682;BME280;70045;40.200;44.582;2024-02-15T12:35:24;86055.50;;;15.12;41.54
80682;BME280;70045;40.200;44.582;2024-02-15T12:38:02;86056.94;;;15.13;41.89
80682;BME280;70045;40.200;44.582;2024-02-15T12:40:39;86057.53;;;15.27;42.16
80682;BME280;70045;40.200;44.582;2024-02-15T12:43:09;86062.75;;;15.45;41.74
80682;BME280;70045;40.200;44.582;2024-02-15T12:45:41;86065.06;;;15.43;41.64
80682;BME280;70045;40.200;44.582;2024-02-15T12:48:07;86064.19;;;15.37;40.46
80682;BME280;70045;40.200;44.582;2024-02-15T12:50:34;86059.41;;;15.81;40.84
80682;BME280;70045;40.200;44.582;2024-02-15T12:53:00;86058.81;;;15.68;40.32
80682;BME280;70045;40.200;44.582;2024-02-15T12:55:31;86059.09;;;15.24;40.26
80682;BME280;70045;40.200;44.582;2024-02-15T12:57:57;86058.97;;;15.09;40.26
80682;BME280;70045;40.200;44.582;2024-02-15T13:00:25;86063.88;;;14.98;40.19
80682;BME280;70045;40.200;44.582;2024-02-15T13:02:51;86065.00;;;14.87;40.73
80682;BME280;70045;40.200;44.582;2024-02-15T13:05:17;86056.56;;;14.65;40.90
80682;BME280;70045;40.200;44.582;2024-02-15T13:07:49;86051.44;;;14.43;41.28
80682;BME280;70045;40.200;44.582;2024-02-15T13:10:15;86056.16;;;14.35;41.19
80682;BME280;70045;40.200;44.582;2024-02-15T13:12:44;86044.56;;;14.27;41.58